KLRF

Little Rock AFB Airport

Jacksonville, Arkansas, USA
METAR KLRF 230056Z 00000KT 10SM SCT070 BKN120 BKN200 25/25 A2999 RMK AO2A SLP156 T02480246
Observed Flight Rules
May-23 @ 00:56 UTC (28 minutes ago) Visual Flight Rules
Visibility Clouds
10 miles
  • Scattered at 7,000' AGL
  • Broken at 12,000' AGL
  • Broken at 20,000' AGL
Temperatures Readings
Current 25°C / 77°F
Dewpoint 25°C / 77°F
Humidity 100%
Altimeter 29.99" Hg
Pressure 1015.6 hPa
Elevation 95
METAR KLRF 230056Z 00000KT 10SM SCT070 BKN120 BKN200 25/25 A2999 RMK AO2A SLP156 T02480246
Observed Flight Rules
May-23 @ 00:56 UTC
(28 minutes ago)
VFR
Clouds
  • Scattered at 7,000' AGL
  • Broken at 12,000' AGL
  • Broken at 20,000' AGL
Temperature Dewpoint
25°C / 77°F 25°C / 77°F
Humidity Altimeter Pressure
100% 29.99" Hg 1015.6 hPa